sensor_id;sensor_type;location;lat;lon;timestamp;pressure;altitude;pressure_sealevel;temperature;humidity
38880;BME280;25887;30.194;-97.880;2023-05-12T00:01:48;97722.31;;;32.23;51.81
38880;BME280;25887;30.194;-97.880;2023-05-12T00:04:14;97722.63;;;32.20;51.59
38880;BME280;25887;30.194;-97.880;2023-05-12T00:06:40;97732.72;;;32.16;51.73
38880;BME280;25887;30.194;-97.880;2023-05-12T00:09:07;97730.22;;;32.14;52.01
38880;BME280;25887;30.194;-97.880;2023-05-12T00:11:38;97720.72;;;32.12;51.78
38880;BME280;25887;30.194;-97.880;2023-05-12T00:14:05;97719.38;;;32.08;51.72
38880;BME280;25887;30.194;-97.880;2023-05-12T00:16:32;97713.81;;;32.01;52.01
38880;BME280;25887;30.194;-97.880;2023-05-12T00:18:58;97722.06;;;31.98;52.40
38880;BME280;25887;30.194;-97.880;2023-05-12T00:21:24;97719.88;;;31.94;52.33
38880;BME280;25887;30.194;-97.880;2023-05-12T00:23:50;97718.66;;;31.88;52.43
38880;BME280;25887;30.194;-97.880;2023-05-12T00:26:16;97720.06;;;31.82;52.33
38880;BME280;25887;30.194;-97.880;2023-05-12T00:28:43;97718.56;;;31.80;52.28
38880;BME280;25887;30.194;-97.880;2023-05-12T00:31:09;97717.28;;;31.74;52.45
38880;BME280;25887;30.194;-97.880;2023-05-12T00:33:36;97716.78;;;31.71;52.72
38880;BME280;25887;30.194;-97.880;2023-05-12T00:36:02;97719.59;;;31.69;52.96
38880;BME280;25887;30.194;-97.880;2023-05-12T00:38:28;97719.03;;;31.66;52.87
38880;BME280;25887;30.194;-97.880;2023-05-12T00:40:55;97727.16;;;31.64;52.87
38880;BME280;25887;30.194;-97.880;2023-05-12T00:43:21;97728.97;;;31.64;52.69
38880;BME280;25887;30.194;-97.880;2023-05-12T00:45:47;97721.31;;;31.60;52.79
38880;BME280;25887;30.194;-97.880;2023-05-12T00:48:13;97727.88;;;31.56;53.10
38880;BME280;25887;30.194;-97.880;2023-05-12T00:50:40;97722.72;;;31.55;53.33
38880;BME280;25887;30.194;-97.880;2023-05-12T00:53:06;97722.19;;;31.51;52.81
38880;BME280;25887;30.194;-97.880;2023-05-12T00:55:34;97722.47;;;31.48;52.95
38880;BME280;25887;30.194;-97.880;2023-05-12T00:58:03;97720.97;;;31.46;53.11
38880;BME280;25887;30.194;-97.880;2023-05-12T01:01:06;97728.38;;;31.42;53.41
38880;BME280;25887;30.194;-97.880;2023-05-12T01:03:33;97736.22;;;31.34;53.02
38880;BME280;25887;30.194;-97.880;2023-05-12T01:06:18;97742.84;;;31.30;53.13
38880;BME280;25887;30.194;-97.880;2023-05-12T01:08:47;97746.91;;;31.24;53.15
38880;BME280;25887;30.194;-97.880;2023-05-12T01:11:13;97753.34;;;31.22;53.01
38880;BME280;25887;30.194;-97.880;2023-05-12T01:13:39;97754.56;;;31.18;53.45
38880;BME280;25887;30.194;-97.880;2023-05-12T01:16:08;97753.19;;;31.14;53.06
38880;BME280;25887;30.194;-97.880;2023-05-12T01:18:36;97757.78;;;31.12;53.30
38880;BME280;25887;30.194;-97.880;2023-05-12T01:21:04;97760.06;;;31.06;53.55
38880;BME280;25887;30.194;-97.880;2023-05-12T01:23:35;97763.97;;;31.02;53.62
38880;BME280;25887;30.194;-97.880;2023-05-12T01:26:11;97769.72;;;30.98;53.34
38880;BME280;25887;30.194;-97.880;2023-05-12T01:28:38;97772.09;;;30.91;53.38
38880;BME280;25887;30.194;-97.880;2023-05-12T01:31:06;97769.03;;;30.86;53.37
38880;BME280;25887;30.194;-97.880;2023-05-12T01:33:33;97766.78;;;30.82;53.26
38880;BME280;25887;30.194;-97.880;2023-05-12T01:36:00;97766.53;;;30.75;53.44
38880;BME280;25887;30.194;-97.880;2023-05-12T01:38:26;97774.75;;;30.72;53.26
38880;BME280;25887;30.194;-97.880;2023-05-12T01:40:53;97775.22;;;30.67;53.64
38880;BME280;25887;30.194;-97.880;2023-05-12T01:43:19;97773.75;;;30.63;53.55
38880;BME280;25887;30.194;-97.880;2023-05-12T01:45:47;97779.63;;;30.57;53.40
38880;BME280;25887;30.194;-97.880;2023-05-12T01:48:13;97779.06;;;30.54;53.50
38880;BME280;25887;30.194;-97.880;2023-05-12T01:50:39;97780.31;;;30.49;53.50
38880;BME280;25887;30.194;-97.880;2023-05-12T01:53:25;97783.25;;;30.46;53.80
38880;BME280;25887;30.194;-97.880;2023-05-12T01:55:51;97780.06;;;30.43;53.64
38880;BME280;25887;30.194;-97.880;2023-05-12T01:58:18;97788.41;;;30.38;53.46
38880;BME280;25887;30.194;-97.880;2023-05-12T02:00:45;97796.66;;;30.35;53.89
38880;BME280;25887;30.194;-97.880;2023-05-12T02:03:11;97799.56;;;30.32;53.73
38880;BME280;25887;30.194;-97.880;2023-05-12T02:05:37;97804.44;;;30.27;54.03
38880;BME280;25887;30.194;-97.880;2023-05-12T02:08:04;97808.22;;;30.24;54.09
38880;BME280;25887;30.194;-97.880;2023-05-12T02:10:32;97809.47;;;30.20;54.10
38880;BME280;25887;30.194;-97.880;2023-05-12T02:12:59;97815.88;;;30.18;54.27
38880;BME280;25887;30.194;-97.880;2023-05-12T02:15:25;97816.44;;;30.12;54.46
38880;BME280;25887;30.194;-97.880;2023-05-12T02:17:51;97824.50;;;30.10;54.37
38880;BME280;25887;30.194;-97.880;2023-05-12T02:20:19;97829.22;;;30.07;54.40
38880;BME280;25887;30.194;-97.880;2023-05-12T02:22:45;97833.09;;;30.03;54.48
38880;BME280;25887;30.194;-97.880;2023-05-12T02:25:11;97839.50;;;30.00;54.73
38880;BME280;25887;30.194;-97.880;2023-05-12T02:27:37;97850.38;;;29.97;54.81
38880;BME280;25887;30.194;-97.880;2023-05-12T02:30:04;97843.94;;;29.90;55.15
38880;BME280;25887;30.194;-97.880;2023-05-12T02:32:30;97843.34;;;29.86;55.07
38880;BME280;25887;30.194;-97.880;2023-05-12T02:34:57;97849.78;;;29.84;55.15
38880;BME280;25887;30.194;-97.880;2023-05-12T02:37:23;97857.84;;;29.82;55.20
38880;BME280;25887;30.194;-97.880;2023-05-12T02:39:49;97856.44;;;29.78;55.00
38880;BME280;25887;30.194;-97.880;2023-05-12T02:42:15;97860.06;;;29.77;55.23
38880;BME280;25887;30.194;-97.880;2023-05-12T02:44:41;97864.66;;;29.75;55.31
38880;BME280;25887;30.194;-97.880;2023-05-12T02:47:08;97864.78;;;29.74;55.20
38880;BME280;25887;30.194;-97.880;2023-05-12T02:49:34;97868.66;;;29.69;55.63
38880;BME280;25887;30.194;-97.880;2023-05-12T02:52:01;97863.75;;;29.65;55.50
38880;BME280;25887;30.194;-97.880;2023-05-12T02:54:27;97871.00;;;29.63;55.80
38880;BME280;25887;30.194;-97.880;2023-05-12T02:56:53;97873.91;;;29.60;55.67
38880;BME280;25887;30.194;-97.880;2023-05-12T02:59:22;97883.81;;;29.58;55.90
38880;BME280;25887;30.194;-97.880;2023-05-12T03:01:49;97883.22;;;29.54;55.84
38880;BME280;25887;30.194;-97.880;2023-05-12T03:04:15;97887.81;;;29.52;55.87
38880;BME280;25887;30.194;-97.880;2023-05-12T03:06:42;97894.22;;;29.50;56.12
38880;BME280;25887;30.194;-97.880;2023-05-12T03:09:08;97898.75;;;29.48;56.25
38880;BME280;25887;30.194;-97.880;2023-05-12T03:11:34;97902.75;;;29.42;56.41
38880;BME280;25887;30.194;-97.880;2023-05-12T03:14:00;97907.31;;;29.40;56.50
38880;BME280;25887;30.194;-97.880;2023-05-12T03:16:27;97908.44;;;29.37;56.22
38880;BME280;25887;30.194;-97.880;2023-05-12T03:18:54;97910.50;;;29.34;56.48
38880;BME280;25887;30.194;-97.880;2023-05-12T03:21:22;97922.16;;;29.31;56.72
38880;BME280;25887;30.194;-97.880;2023-05-12T03:23:49;97919.66;;;29.30;56.54
38880;BME280;25887;30.194;-97.880;2023-05-12T03:26:15;97923.41;;;29.27;56.58
38880;BME280;25887;30.194;-97.880;2023-05-12T03:28:45;97927.28;;;29.23;56.73
38880;BME280;25887;30.194;-97.880;2023-05-12T03:31:11;97924.06;;;29.20;56.83
38880;BME280;25887;30.194;-97.880;2023-05-12T03:33:37;97921.78;;;29.15;56.82
38880;BME280;25887;30.194;-97.880;2023-05-12T03:36:04;97924.69;;;29.12;57.03
38880;BME280;25887;30.194;-97.880;2023-05-12T03:38:30;97933.69;;;29.09;57.08
38880;BME280;25887;30.194;-97.880;2023-05-12T03:41:06;97921.56;;;29.07;57.31
38880;BME280;25887;30.194;-97.880;2023-05-12T03:43:32;97934.31;;;29.02;57.58
38880;BME280;25887;30.194;-97.880;2023-05-12T03:45:59;97932.91;;;28.98;57.78
38880;BME280;25887;30.194;-97.880;2023-05-12T03:48:25;97934.13;;;28.94;57.79
38880;BME280;25887;30.194;-97.880;2023-05-12T03:50:52;97935.22;;;28.91;58.03
38880;BME280;25887;30.194;-97.880;2023-05-12T03:53:18;97939.91;;;28.88;57.95
38880;BME280;25887;30.194;-97.880;2023-05-12T03:55:44;97939.28;;;28.84;57.95
38880;BME280;25887;30.194;-97.880;2023-05-12T03:58:10;97944.84;;;28.81;58.34
38880;BME280;25887;30.194;-97.880;2023-05-12T04:00:36;97948.56;;;28.78;58.30
38880;BME280;25887;30.194;-97.880;2023-05-12T04:03:02;97950.38;;;28.78;58.69
38880;BME280;25887;30.194;-97.880;2023-05-12T04:05:28;97959.41;;;28.75;58.89
38880;BME280;25887;30.194;-97.880;2023-05-12T04:07:55;97948.34;;;28.70;58.64
38880;BME280;25887;30.194;-97.880;2023-05-12T04:10:21;97948.59;;;28.67;58.78
38880;BME280;25887;30.194;-97.880;2023-05-12T04:12:47;97948.00;;;28.64;59.19
38880;BME280;25887;30.194;-97.880;2023-05-12T04:15:13;97943.94;;;28.59;59.45
38880;BME280;25887;30.194;-97.880;2023-05-12T04:17:40;97951.25;;;28.56;59.12
38880;BME280;25887;30.194;-97.880;2023-05-12T04:20:07;97953.19;;;28.54;59.47
38880;BME280;25887;30.194;-97.880;2023-05-12T04:22:33;97952.59;;;28.50;59.53
38880;BME280;25887;30.194;-97.880;2023-05-12T04:24:59;97958.84;;;28.49;59.84
38880;BME280;25887;30.194;-97.880;2023-05-12T04:27:25;97961.59;;;28.48;59.71
38880;BME280;25887;30.194;-97.880;2023-05-12T04:29:51;97959.22;;;28.45;59.51
38880;BME280;25887;30.194;-97.880;2023-05-12T04:32:18;97961.97;;;28.43;59.70
38880;BME280;25887;30.194;-97.880;2023-05-12T04:34:44;97964.75;;;28.42;59.87
38880;BME280;25887;30.194;-97.880;2023-05-12T04:37:10;97963.19;;;28.39;59.97
38880;BME280;25887;30.194;-97.880;2023-05-12T04:39:36;97965.94;;;28.38;60.03
38880;BME280;25887;30.194;-97.880;2023-05-12T04:42:02;97963.31;;;28.38;60.20
38880;BME280;25887;30.194;-97.880;2023-05-12T04:44:29;97967.03;;;28.35;59.82
38880;BME280;25887;30.194;-97.880;2023-05-12T04:50:13;97982.28;;;28.31;60.28
38880;BME280;25887;30.194;-97.880;2023-05-12T04:52:39;97984.19;;;28.29;60.34
38880;BME280;25887;30.194;-97.880;2023-05-12T04:55:06;97979.13;;;28.26;60.42
38880;BME280;25887;30.194;-97.880;2023-05-12T04:57:33;97980.09;;;28.25;60.15
38880;BME280;25887;30.194;-97.880;2023-05-12T04:59:59;97971.44;;;28.23;60.40
38880;BME280;25887;30.194;-97.880;2023-05-12T05:02:29;97977.69;;;28.22;60.37
38880;BME280;25887;30.194;-97.880;2023-05-12T05:04:55;97970.00;;;28.19;60.37
38880;BME280;25887;30.194;-97.880;2023-05-12T05:07:21;97970.00;;;28.19;60.79
38880;BME280;25887;30.194;-97.880;2023-05-12T05:09:47;97970.22;;;28.16;60.59
38880;BME280;25887;30.194;-97.880;2023-05-12T05:12:14;97964.13;;;28.16;60.39
38880;BME280;25887;30.194;-97.880;2023-05-12T05:14:40;97971.19;;;28.15;60.57
38880;BME280;25887;30.194;-97.880;2023-05-12T05:17:06;97968.69;;;28.14;60.62
38880;BME280;25887;30.194;-97.880;2023-05-12T05:19:32;97965.34;;;28.12;60.79
38880;BME280;25887;30.194;-97.880;2023-05-12T05:21:59;97965.47;;;28.10;60.74
38880;BME280;25887;30.194;-97.880;2023-05-12T05:24:25;97971.66;;;28.09;60.72
38880;BME280;25887;30.194;-97.880;2023-05-12T05:26:51;97971.66;;;28.09;60.92
38880;BME280;25887;30.194;-97.880;2023-05-12T05:29:17;97964.72;;;28.08;60.83
38880;BME280;25887;30.194;-97.880;2023-05-12T05:31:44;97972.63;;;28.08;61.31
38880;BME280;25887;30.194;-97.880;2023-05-12T05:34:10;97972.88;;;28.05;61.48
38880;BME280;25887;30.194;-97.880;2023-05-12T05:36:36;97972.88;;;28.05;61.00
38880;BME280;25887;30.194;-97.880;2023-05-12T05:39:02;97974.91;;;28.01;61.14
38880;BME280;25887;30.194;-97.880;2023-05-12T05:41:29;97974.06;;;28.01;61.37
38880;BME280;25887;30.194;-97.880;2023-05-12T05:43:55;97972.38;;;28.00;61.23
38880;BME280;25887;30.194;-97.880;2023-05-12T05:46:21;97970.59;;;28.00;61.49
38880;BME280;25887;30.194;-97.880;2023-05-12T05:48:48;97968.06;;;27.99;61.59
38880;BME280;25887;30.194;-97.880;2023-05-12T05:51:14;97974.44;;;27.96;61.33
38880;BME280;25887;30.194;-97.880;2023-05-12T05:57:02;97988.09;;;27.90;61.81
38880;BME280;25887;30.194;-97.880;2023-05-12T05:59:28;97993.50;;;27.89;61.79
38880;BME280;25887;30.194;-97.880;2023-05-12T06:01:55;97983.16;;;27.86;61.93
38880;BME280;25887;30.194;-97.880;2023-05-12T06:04:21;97985.94;;;27.84;61.93
38880;BME280;25887;30.194;-97.880;2023-05-12T06:06:47;97986.78;;;27.85;62.04
38880;BME280;25887;30.194;-97.880;2023-05-12T06:09:13;97990.38;;;27.84;61.97
38880;BME280;25887;30.194;-97.880;2023-05-12T06:11:42;97988.69;;;27.83;62.00
38880;BME280;25887;30.194;-97.880;2023-05-12T06:14:08;97990.38;;;27.84;62.04
38880;BME280;25887;30.194;-97.880;2023-05-12T06:16:34;97993.97;;;27.83;61.91
38880;BME280;25887;30.194;-97.880;2023-05-12T06:19:00;97994.09;;;27.81;61.67
38880;BME280;25887;30.194;-97.880;2023-05-12T06:21:27;97990.63;;;27.81;61.76
38880;BME280;25887;30.194;-97.880;2023-05-12T06:23:53;97989.91;;;27.79;62.18
38880;BME280;25887;30.194;-97.880;2023-05-12T06:26:21;97995.19;;;27.79;61.75
38880;BME280;25887;30.194;-97.880;2023-05-12T06:28:47;97990.97;;;27.76;61.86
38880;BME280;25887;30.194;-97.880;2023-05-12T06:31:13;97992.75;;;27.75;62.32
38880;BME280;25887;30.194;-97.880;2023-05-12T06:33:40;97993.00;;;27.72;62.09
38880;BME280;25887;30.194;-97.880;2023-05-12T06:36:06;97993.97;;;27.71;62.14
38880;BME280;25887;30.194;-97.880;2023-05-12T06:38:33;97995.88;;;27.69;62.42
38880;BME280;25887;30.194;-97.880;2023-05-12T06:40:59;97995.88;;;27.69;62.48
38880;BME280;25887;30.194;-97.880;2023-05-12T06:43:25;97995.16;;;27.67;62.06
38880;BME280;25887;30.194;-97.880;2023-05-12T06:45:52;98001.34;;;27.66;62.56
38880;BME280;25887;30.194;-97.880;2023-05-12T06:48:18;98004.88;;;27.67;62.04
38880;BME280;25887;30.194;-97.880;2023-05-12T06:50:44;98000.41;;;27.67;62.53
38880;BME280;25887;30.194;-97.880;2023-05-12T06:53:10;97999.59;;;27.67;62.58
38880;BME280;25887;30.194;-97.880;2023-05-12T06:55:36;97999.59;;;27.67;62.08
38880;BME280;25887;30.194;-97.880;2023-05-12T06:58:03;97995.97;;;27.68;62.23
38880;BME280;25887;30.194;-97.880;2023-05-12T07:00:29;97998.72;;;27.66;62.41
38880;BME280;25887;30.194;-97.880;2023-05-12T07:02:56;97990.06;;;27.64;62.51
38880;BME280;25887;30.194;-97.880;2023-05-12T07:05:22;98005.91;;;27.64;62.46
38880;BME280;25887;30.194;-97.880;2023-05-12T07:07:48;97993.69;;;27.63;62.25
38880;BME280;25887;30.194;-97.880;2023-05-12T07:10:15;97992.09;;;27.61;62.74
38880;BME280;25887;30.194;-97.880;2023-05-12T07:12:41;97992.22;;;27.59;62.81
38880;BME280;25887;30.194;-97.880;2023-05-12T07:15:08;98001.94;;;27.59;62.81
38880;BME280;25887;30.194;-97.880;2023-05-12T07:17:34;97998.44;;;27.58;62.70
38880;BME280;25887;30.194;-97.880;2023-05-12T07:20:00;97994.25;;;27.56;62.97
38880;BME280;25887;30.194;-97.880;2023-05-12T07:22:27;97996.16;;;27.54;63.05
38880;BME280;25887;30.194;-97.880;2023-05-12T07:24:54;97988.34;;;27.52;62.82
38880;BME280;25887;30.194;-97.880;2023-05-12T07:27:20;97995.44;;;27.52;62.75
38880;BME280;25887;30.194;-97.880;2023-05-12T07:29:46;97997.34;;;27.49;63.22
38880;BME280;25887;30.194;-97.880;2023-05-12T07:32:12;97983.44;;;27.47;63.37
38880;BME280;25887;30.194;-97.880;2023-05-12T07:34:39;97983.66;;;27.44;63.24
38880;BME280;25887;30.194;-97.880;2023-05-12T07:37:05;97981.13;;;27.43;63.09
38880;BME280;25887;30.194;-97.880;2023-05-12T07:39:31;97976.81;;;27.42;63.00
38880;BME280;25887;30.194;-97.880;2023-05-12T07:41:59;97977.66;;;27.42;62.94
38880;BME280;25887;30.194;-97.880;2023-05-12T07:44:25;97972.50;;;27.41;63.54
38880;BME280;25887;30.194;-97.880;2023-05-12T07:46:52;97970.81;;;27.40;63.42
38880;BME280;25887;30.194;-97.880;2023-05-12T07:49:19;97977.78;;;27.41;63.48
38880;BME280;25887;30.194;-97.880;2023-05-12T07:51:46;97974.19;;;27.42;63.52
38880;BME280;25887;30.194;-97.880;2023-05-12T07:54:12;97975.97;;;27.41;63.39
38880;BME280;25887;30.194;-97.880;2023-05-12T07:56:38;97966.38;;;27.40;63.08
38880;BME280;25887;30.194;-97.880;2023-05-12T07:59:04;97975.97;;;27.41;63.14
38880;BME280;25887;30.194;-97.880;2023-05-12T08:01:31;97982.22;;;27.40;63.64
38880;BME280;25887;30.194;-97.880;2023-05-12T08:03:57;97984.00;;;27.40;63.14
38880;BME280;25887;30.194;-97.880;2023-05-12T08:06:23;97981.38;;;27.40;63.26
38880;BME280;25887;30.194;-97.880;2023-05-12T08:08:49;97969.22;;;27.37;63.30
38880;BME280;25887;30.194;-97.880;2023-05-12T08:11:15;97975.34;;;27.38;63.19
38880;BME280;25887;30.194;-97.880;2023-05-12T08:13:41;97973.66;;;27.37;63.67
38880;BME280;25887;30.194;-97.880;2023-05-12T08:16:07;97981.59;;;27.37;63.16
38880;BME280;25887;30.194;-97.880;2023-05-12T08:18:34;97979.78;;;27.37;63.58
38880;BME280;25887;30.194;-97.880;2023-05-12T08:21:23;97972.72;;;27.38;63.31
38880;BME280;25887;30.194;-97.880;2023-05-12T08:23:50;97986.03;;;27.36;63.45
38880;BME280;25887;30.194;-97.880;2023-05-12T08:26:16;97986.97;;;27.35;63.38
38880;BME280;25887;30.194;-97.880;2023-05-12T08:28:42;97994.06;;;27.35;63.53
38880;BME280;25887;30.194;-97.880;2023-05-12T08:31:08;97997.66;;;27.34;63.38
38880;BME280;25887;30.194;-97.880;2023-05-12T08:33:34;97992.38;;;27.34;63.56
38880;BME280;25887;30.194;-97.880;2023-05-12T08:36:01;97995.97;;;27.33;63.73
38880;BME280;25887;30.194;-97.880;2023-05-12T08:38:27;97991.66;;;27.32;64.10
38880;BME280;25887;30.194;-97.880;2023-05-12T08:43:43;97989.94;;;27.31;63.51
38880;BME280;25887;30.194;-97.880;2023-05-12T08:46:11;97991.66;;;27.32;63.80
38880;BME280;25887;30.194;-97.880;2023-05-12T08:48:39;97993.53;;;27.30;63.59
38880;BME280;25887;30.194;-97.880;2023-05-12T08:51:07;97984.78;;;27.29;63.77
38880;BME280;25887;30.194;-97.880;2023-05-12T08:53:40;97990.19;;;27.28;63.59
38880;BME280;25887;30.194;-97.880;2023-05-12T08:56:09;97990.91;;;27.30;64.39
38880;BME280;25887;30.194;-97.880;2023-05-12T08:58:38;97999.78;;;27.29;63.82
38880;BME280;25887;30.194;-97.880;2023-05-12T09:01:19;97995.34;;;27.29;64.03
38880;BME280;25887;30.194;-97.880;2023-05-12T09:03:46;98002.41;;;27.29;63.84
38880;BME280;25887;30.194;-97.880;2023-05-12T09:06:12;97991.16;;;27.27;64.12
38880;BME280;25887;30.194;-97.880;2023-05-12T09:08:39;98003.38;;;27.28;63.90
38880;BME280;25887;30.194;-97.880;2023-05-12T09:11:06;98002.53;;;27.27;63.74
38880;BME280;25887;30.194;-97.880;2023-05-12T09:13:52;98005.06;;;27.29;63.68
38880;BME280;25887;30.194;-97.880;2023-05-12T09:16:23;98018.13;;;27.30;63.75
38880;BME280;25887;30.194;-97.880;2023-05-12T09:18:53;98018.25;;;27.29;63.68
38880;BME280;25887;30.194;-97.880;2023-05-12T09:21:20;98017.53;;;27.27;64.18
38880;BME280;25887;30.194;-97.880;2023-05-12T09:24:00;98007.69;;;27.29;63.85
38880;BME280;25887;30.194;-97.880;2023-05-12T09:26:44;98009.72;;;27.25;64.44
38880;BME280;25887;30.194;-97.880;2023-05-12T09:29:11;98011.53;;;27.25;64.20
38880;BME280;25887;30.194;-97.880;2023-05-12T09:31:37;98007.19;;;27.24;64.24
38880;BME280;25887;30.194;-97.880;2023-05-12T09:34:08;98015.09;;;27.24;64.22
38880;BME280;25887;30.194;-97.880;2023-05-12T09:36:34;98006.34;;;27.23;64.58
38880;BME280;25887;30.194;-97.880;2023-05-12T09:39:07;98006.47;;;27.21;64.54
38880;BME280;25887;30.194;-97.880;2023-05-12T09:41:38;98011.00;;;27.19;64.93
38880;BME280;25887;30.194;-97.880;2023-05-12T09:44:05;98013.66;;;27.19;64.99
38880;BME280;25887;30.194;-97.880;2023-05-12T09:46:32;98005.03;;;27.17;64.68
38880;BME280;25887;30.194;-97.880;2023-05-12T09:48:59;97998.78;;;27.18;64.86
38880;BME280;25887;30.194;-97.880;2023-05-12T09:51:26;98005.75;;;27.19;65.15
38880;BME280;25887;30.194;-97.880;2023-05-12T09:53:52;97991.84;;;27.17;64.98
38880;BME280;25887;30.194;-97.880;2023-05-12T09:56:18;97997.94;;;27.18;64.95
38880;BME280;25887;30.194;-97.880;2023-05-12T09:58:46;97998.91;;;27.17;65.34
38880;BME280;25887;30.194;-97.880;2023-05-12T10:01:17;97994.34;;;27.19;64.80
38880;BME280;25887;30.194;-97.880;2023-05-12T10:03:48;97995.19;;;27.19;64.83
38880;BME280;25887;30.194;-97.880;2023-05-12T10:11:32;97989.78;;;27.21;64.77
38880;BME280;25887;30.194;-97.880;2023-05-12T10:13:59;97995.06;;;27.21;65.31
38880;BME280;25887;30.194;-97.880;2023-05-12T10:16:27;98001.31;;;27.20;65.05
38880;BME280;25887;30.194;-97.880;2023-05-12T10:18:54;97996.88;;;27.20;65.16
38880;BME280;25887;30.194;-97.880;2023-05-12T10:21:28;97997.72;;;27.21;65.19
38880;BME280;25887;30.194;-97.880;2023-05-12T10:24:15;97990.75;;;27.20;65.40
38880;BME280;25887;30.194;-97.880;2023-05-12T10:26:42;97996.88;;;27.20;65.07
38880;BME280;25887;30.194;-97.880;2023-05-12T10:29:09;98001.31;;;27.20;65.32
38880;BME280;25887;30.194;-97.880;2023-05-12T10:31:36;98011.84;;;27.20;65.66
38880;BME280;25887;30.194;-97.880;2023-05-12T10:34:03;98006.47;;;27.21;65.41
38880;BME280;25887;30.194;-97.880;2023-05-12T10:36:30;98008.25;;;27.21;65.21
38880;BME280;25887;30.194;-97.880;2023-05-12T10:39:04;98003.81;;;27.21;65.37
38880;BME280;25887;30.194;-97.880;2023-05-12T10:41:33;98007.41;;;27.20;65.70
38880;BME280;25887;30.194;-97.880;2023-05-12T10:44:00;98005.75;;;27.19;65.58
38880;BME280;25887;30.194;-97.880;2023-05-12T10:46:28;98010.06;;;27.20;65.80
38880;BME280;25887;30.194;-97.880;2023-05-12T10:49:08;98009.09;;;27.21;65.52
38880;BME280;25887;30.194;-97.880;2023-05-12T10:54:17;98015.09;;;27.24;65.41
38880;BME280;25887;30.194;-97.880;2023-05-12T10:56:44;98017.84;;;27.22;65.49
38880;BME280;25887;30.194;-97.880;2023-05-12T10:59:23;98022.09;;;27.25;65.93
38880;BME280;25887;30.194;-97.880;2023-05-12T11:02:03;98030.00;;;27.25;65.40
38880;BME280;25887;30.194;-97.880;2023-05-12T11:04:56;98036.09;;;27.25;65.67
38880;BME280;25887;30.194;-97.880;2023-05-12T11:07:27;98042.09;;;27.27;65.55
38880;BME280;25887;30.194;-97.880;2023-05-12T11:09:55;98044.50;;;27.30;65.69
38880;BME280;25887;30.194;-97.880;2023-05-12T11:12:22;98050.63;;;27.31;65.51
38880;BME280;25887;30.194;-97.880;2023-05-12T11:14:49;98049.69;;;27.32;65.15
38880;BME280;25887;30.194;-97.880;2023-05-12T11:17:15;98045.25;;;27.32;65.26
38880;BME280;25887;30.194;-97.880;2023-05-12T11:19:46;98052.22;;;27.33;65.22
38880;BME280;25887;30.194;-97.880;2023-05-12T11:22:13;98063.59;;;27.34;65.47
38880;BME280;25887;30.194;-97.880;2023-05-12T11:24:41;98063.59;;;27.34;65.58
38880;BME280;25887;30.194;-97.880;2023-05-12T11:27:12;98066.25;;;27.34;65.47
38880;BME280;25887;30.194;-97.880;2023-05-12T11:29:39;98072.38;;;27.34;65.58
38880;BME280;25887;30.194;-97.880;2023-05-12T11:32:07;98072.38;;;27.34;65.30
38880;BME280;25887;30.194;-97.880;2023-05-12T11:34:36;98075.72;;;27.36;65.40
38880;BME280;25887;30.194;-97.880;2023-05-12T11:37:04;98075.59;;;27.38;65.08
38880;BME280;25887;30.194;-97.880;2023-05-12T11:39:31;98078.25;;;27.38;65.49
38880;BME280;25887;30.194;-97.880;2023-05-12T11:42:07;98079.91;;;27.39;65.49
38880;BME280;25887;30.194;-97.880;2023-05-12T11:44:44;98079.91;;;27.39;64.90
38880;BME280;25887;30.194;-97.880;2023-05-12T11:47:13;98095.75;;;27.39;65.08
38880;BME280;25887;30.194;-97.880;2023-05-12T11:50:01;98094.72;;;27.41;65.23
38880;BME280;25887;30.194;-97.880;2023-05-12T11:53:26;98093.88;;;27.41;65.07
38880;BME280;25887;30.194;-97.880;2023-05-12T11:56:24;98092.19;;;27.40;65.37
38880;BME280;25887;30.194;-97.880;2023-05-12T12:15:41;98106.97;;;27.30;65.56
38880;BME280;25887;30.194;-97.880;2023-05-12T12:23:39;98111.28;;;27.31;65.92
38880;BME280;25887;30.194;-97.880;2023-05-12T12:26:05;98131.47;;;27.32;65.73
38880;BME280;25887;30.194;-97.880;2023-05-12T12:28:32;98127.88;;;27.33;65.96
38880;BME280;25887;30.194;-97.880;2023-05-12T12:30:58;98129.56;;;27.34;66.14
38880;BME280;25887;30.194;-97.880;2023-05-12T12:33:25;98135.56;;;27.36;66.02
38880;BME280;25887;30.194;-97.880;2023-05-12T12:35:51;98139.88;;;27.37;66.01
38880;BME280;25887;30.194;-97.880;2023-05-12T12:38:17;98142.50;;;27.37;65.95
38880;BME280;25887;30.194;-97.880;2023-05-12T12:40:59;98153.78;;;27.39;65.81
38880;BME280;25887;30.194;-97.880;2023-05-12T12:43:26;98151.28;;;27.37;66.28
38880;BME280;25887;30.194;-97.880;2023-05-12T12:45:52;98157.38;;;27.38;66.25
38880;BME280;25887;30.194;-97.880;2023-05-12T12:48:19;98159.06;;;27.39;65.81
38880;BME280;25887;30.194;-97.880;2023-05-12T12:50:46;98156.34;;;27.40;65.84
38880;BME280;25887;30.194;-97.880;2023-05-12T12:53:12;98156.34;;;27.40;66.23
38880;BME280;25887;30.194;-97.880;2023-05-12T12:56:24;98158.88;;;27.42;66.38
38880;BME280;25887;30.194;-97.880;2023-05-12T12:59:45;98166.91;;;27.40;65.92
38880;BME280;25887;30.194;-97.880;2023-05-12T13:02:37;98173.03;;;27.41;66.34
38880;BME280;25887;30.194;-97.880;2023-05-12T13:05:44;98161.63;;;27.40;65.95
38880;BME280;25887;30.194;-97.880;2023-05-12T13:08:23;98170.38;;;27.41;66.42
38880;BME280;25887;30.194;-97.880;2023-05-12T13:14:41;98165.94;;;27.41;66.44
38880;BME280;25887;30.194;-97.880;2023-05-12T13:17:07;98170.25;;;27.42;66.06
38880;BME280;25887;30.194;-97.880;2023-05-12T13:19:35;98168.47;;;27.43;66.59
38880;BME280;25887;30.194;-97.880;2023-05-12T13:22:01;98164.75;;;27.45;66.23
38880;BME280;25887;30.194;-97.880;2023-05-12T13:51:10;98164.09;;;27.55;66.64
38880;BME280;25887;30.194;-97.880;2023-05-12T13:53:36;98174.31;;;27.59;66.46
38880;BME280;25887;30.194;-97.880;2023-05-12T13:56:04;98180.13;;;27.64;66.73
38880;BME280;25887;30.194;-97.880;2023-05-12T13:58:31;98180.63;;;27.69;66.75